createdAt,value
2017-12-08T00:01:20.217Z,6.74
2017-12-08T00:02:20.102Z,6.79
2017-12-08T00:04:13.497Z,6.78
2017-12-08T00:05:13.416Z,6.75
2017-12-08T00:07:06.773Z,6.78
2017-12-08T00:08:06.738Z,6.74
2017-12-08T00:10:03.630Z,6.71
2017-12-08T00:11:03.586Z,6.73
2017-12-08T00:12:56.950Z,6.71
2017-12-08T00:13:56.913Z,6.74
2017-12-08T00:15:50.280Z,6.73
2017-12-08T00:16:50.238Z,6.65
2017-12-08T00:18:43.596Z,6.74
2017-12-08T00:19:43.557Z,6.78
2017-12-08T00:21:37.737Z,6.68
2017-12-08T00:22:37.709Z,6.73
2017-12-08T00:24:33.605Z,6.74
2017-12-08T00:25:33.569Z,6.71
2017-12-08T00:27:27.743Z,6.74
2017-12-08T00:28:27.710Z,6.74
2017-12-08T00:30:21.067Z,6.68
2017-12-08T00:31:21.017Z,6.73
2017-12-08T00:33:14.377Z,6.71
2017-12-08T00:34:14.336Z,6.70
2017-12-08T00:36:07.698Z,6.71
2017-12-08T00:37:07.655Z,6.83
2017-12-08T00:39:01.024Z,6.83
2017-12-08T00:40:00.986Z,6.83
2017-12-08T00:41:54.332Z,6.88
2017-12-08T00:42:54.296Z,6.85
2017-12-08T00:44:47.657Z,6.85
2017-12-08T00:45:47.605Z,6.82
2017-12-08T00:47:41.795Z,6.86
2017-12-08T00:48:41.756Z,6.92
2017-12-08T00:50:35.121Z,6.92
2017-12-08T00:51:35.080Z,6.91
2017-12-08T00:53:28.456Z,6.99
2017-12-08T00:54:28.412Z,6.93
2017-12-08T00:56:21.775Z,6.89
2017-12-08T00:57:21.738Z,6.97
2017-12-08T00:59:15.102Z,7.01
2017-12-08T01:00:15.056Z,6.89
2017-12-08T01:02:11.744Z,6.99
2017-12-08T01:03:11.696Z,6.99
2017-12-08T01:05:05.969Z,6.97
2017-12-08T01:06:05.928Z,6.99
2017-12-08T01:08:01.805Z,7.03
2017-12-08T01:09:01.754Z,6.99
2017-12-08T01:10:57.676Z,7.01
2017-12-08T01:11:57.612Z,6.99
2017-12-08T01:13:50.940Z,7.03
2017-12-08T01:14:50.899Z,7.00
2017-12-08T01:16:45.166Z,7.03
2017-12-08T01:17:45.119Z,7.03
2017-12-08T01:19:38.476Z,7.03
2017-12-08T01:20:38.443Z,6.99
2017-12-08T01:22:31.803Z,7.01
2017-12-08T01:23:31.755Z,7.01
2017-12-08T01:25:26.004Z,7.03
2017-12-08T01:26:25.965Z,7.01
2017-12-08T01:28:19.352Z,7.07
2017-12-08T01:29:19.283Z,7.00
2017-12-08T01:31:12.647Z,7.15
2017-12-08T01:32:12.609Z,7.16
2017-12-08T01:34:05.980Z,7.13
2017-12-08T01:35:05.935Z,7.01
2017-12-08T01:36:59.301Z,7.07
2017-12-08T01:37:59.251Z,7.10
2017-12-08T01:39:52.618Z,7.19
2017-12-08T01:40:52.587Z,7.16
2017-12-08T01:42:45.932Z,7.08
2017-12-08T01:43:45.897Z,7.10
2017-12-08T01:45:39.261Z,7.11
2017-12-08T01:46:39.233Z,7.08
2017-12-08T01:48:32.587Z,7.15
2017-12-08T01:49:32.549Z,7.11
2017-12-08T01:51:25.920Z,7.15
2017-12-08T01:52:25.873Z,7.15
2017-12-08T01:54:19.236Z,7.18
2017-12-08T01:55:19.204Z,7.15
2017-12-08T01:57:15.065Z,7.22
2017-12-08T01:58:15.022Z,7.19
2017-12-08T02:00:08.405Z,7.18
2017-12-08T02:01:08.346Z,7.10
2017-12-08T02:03:01.718Z,7.22
2017-12-08T02:04:01.658Z,7.24
2017-12-08T02:05:55.021Z,7.25
2017-12-08T02:06:54.981Z,7.24
2017-12-08T02:08:48.346Z,7.24
2017-12-08T02:09:48.309Z,7.24
2017-12-08T02:11:41.671Z,7.25
2017-12-08T02:12:41.627Z,7.22
2017-12-08T02:14:34.998Z,7.24
2017-12-08T02:15:34.950Z,7.28
2017-12-08T02:17:28.302Z,7.28
2017-12-08T02:18:28.268Z,7.26
2017-12-08T02:20:21.644Z,7.24
2017-12-08T02:21:21.595Z,7.25
2017-12-08T02:23:15.213Z,7.26
2017-12-08T02:24:14.915Z,7.28
2017-12-08T02:26:08.290Z,7.29
2017-12-08T02:27:08.243Z,7.26
2017-12-08T02:29:01.636Z,7.36
2017-12-08T02:30:01.597Z,7.25
2017-12-08T02:31:57.463Z,7.25
2017-12-08T02:32:57.425Z,7.25
2017-12-08T02:34:50.789Z,7.25
2017-12-08T02:35:50.794Z,7.22
2017-12-08T02:37:44.107Z,7.22
2017-12-08T02:38:44.057Z,7.24
2017-12-08T02:40:37.417Z,7.22
2017-12-08T02:41:37.377Z,7.21
2017-12-08T02:43:30.744Z,7.21
2017-12-08T02:44:30.705Z,7.19
2017-12-08T02:46:24.071Z,7.10
2017-12-08T02:47:24.030Z,7.16
2017-12-08T02:49:17.394Z,7.21
2017-12-08T02:50:17.349Z,7.28
2017-12-08T02:52:13.219Z,7.22
2017-12-08T02:53:13.182Z,7.18
2017-12-08T02:55:06.552Z,7.31
2017-12-08T02:56:06.506Z,7.18
2017-12-08T02:57:59.863Z,7.25
2017-12-08T02:58:59.850Z,7.13
2017-12-08T03:00:53.185Z,7.18
2017-12-08T03:01:53.145Z,7.21
2017-12-08T03:03:46.555Z,7.24
2017-12-08T03:04:46.518Z,7.13
2017-12-08T03:06:39.917Z,7.13
2017-12-08T03:07:39.858Z,7.24
2017-12-08T03:09:34.099Z,7.19
2017-12-08T03:10:34.058Z,7.26
2017-12-08T03:12:27.415Z,7.21
2017-12-08T03:13:27.374Z,7.24
2017-12-08T03:15:20.733Z,7.25
2017-12-08T03:16:20.688Z,7.28
2017-12-08T03:18:14.925Z,7.26
2017-12-08T03:19:14.880Z,7.25
2017-12-08T03:21:08.241Z,7.28
2017-12-08T03:22:08.200Z,7.28
2017-12-08T03:24:02.429Z,7.24
2017-12-08T03:25:02.392Z,7.26
2017-12-08T03:26:56.643Z,7.26
2017-12-08T03:27:56.606Z,7.24
2017-12-08T03:29:49.963Z,7.25
2017-12-08T03:30:49.927Z,7.29
2017-12-08T03:32:43.285Z,7.25
2017-12-08T03:33:43.249Z,7.26
2017-12-08T03:35:39.117Z,7.31
2017-12-08T03:36:39.072Z,7.24
2017-12-08T03:38:32.434Z,7.21
2017-12-08T03:39:32.389Z,7.26
2017-12-08T03:41:26.579Z,7.33
2017-12-08T03:42:26.523Z,7.21
2017-12-08T03:44:22.390Z,7.24
2017-12-08T03:45:22.351Z,7.19
2017-12-08T03:47:18.222Z,7.19
2017-12-08T03:48:18.181Z,7.29
2017-12-08T03:50:11.545Z,7.21
2017-12-08T03:51:11.553Z,7.19
2017-12-08T03:53:04.881Z,7.16
2017-12-08T03:54:04.831Z,7.16
2017-12-08T03:55:58.204Z,7.13
2017-12-08T03:56:58.155Z,7.06
2017-12-08T03:58:54.019Z,7.13
2017-12-08T03:59:53.979Z,7.10
2017-12-08T04:01:49.865Z,7.15
2017-12-08T04:02:49.824Z,7.15
2017-12-08T04:04:45.698Z,7.15
2017-12-08T04:05:45.650Z,7.18
2017-12-08T04:07:39.023Z,7.06
2017-12-08T04:08:38.990Z,7.07
2017-12-08T04:10:32.350Z,7.07
2017-12-08T04:11:32.308Z,7.21
2017-12-08T04:13:25.683Z,7.16
2017-12-08T04:14:25.634Z,7.04
2017-12-08T04:16:19.034Z,7.08
2017-12-08T04:17:18.996Z,7.10
2017-12-08T04:19:12.317Z,7.06
2017-12-08T04:20:12.276Z,7.18
2017-12-08T04:22:05.653Z,7.21
2017-12-08T04:23:05.618Z,7.15
2017-12-08T04:24:58.967Z,7.10
2017-12-08T04:25:58.926Z,7.07
2017-12-08T04:27:52.293Z,7.04
2017-12-08T04:28:52.255Z,7.24
2017-12-08T04:30:45.607Z,7.10
2017-12-08T04:31:45.566Z,7.24
2017-12-08T04:33:38.925Z,7.21
2017-12-08T04:34:38.894Z,7.04
2017-12-08T04:36:32.256Z,7.10
2017-12-08T04:37:32.212Z,7.28
2017-12-08T04:39:25.615Z,7.13
2017-12-08T04:40:25.572Z,7.07
2017-12-08T04:42:18.941Z,7.22
2017-12-08T04:43:18.902Z,7.18
2017-12-08T04:45:12.265Z,7.10
2017-12-08T04:46:12.224Z,7.13
2017-12-08T04:48:05.593Z,7.10
2017-12-08T04:49:05.546Z,7.01
2017-12-08T04:51:01.427Z,7.22
2017-12-08T04:52:01.383Z,7.03
2017-12-08T04:53:54.763Z,7.16
2017-12-08T04:54:54.718Z,7.08
2017-12-08T04:56:48.089Z,7.07
2017-12-08T04:57:48.028Z,7.21
2017-12-08T04:59:43.907Z,7.13
2017-12-08T05:00:43.868Z,7.08
2017-12-08T05:02:37.238Z,7.15
2017-12-08T05:03:37.196Z,7.24
2017-12-08T05:05:30.576Z,7.07
2017-12-08T05:06:30.537Z,7.15
2017-12-08T05:08:23.896Z,7.18
2017-12-08T05:09:23.853Z,7.16
2017-12-08T05:11:17.228Z,7.18
2017-12-08T05:12:17.184Z,7.13
2017-12-08T05:14:10.535Z,7.16
2017-12-08T05:15:10.497Z,7.16
2017-12-08T05:17:03.856Z,7.16
2017-12-08T05:18:03.807Z,7.13
2017-12-08T05:19:57.182Z,7.15
2017-12-08T05:20:57.137Z,7.15
2017-12-08T05:22:50.505Z,7.21
2017-12-08T05:23:50.461Z,7.15
2017-12-08T05:25:45.739Z,7.18
2017-12-08T05:26:43.792Z,7.21
2017-12-08T05:28:37.197Z,7.16
2017-12-08T05:29:37.112Z,7.11
2017-12-08T05:31:30.471Z,7.10
2017-12-08T05:32:30.419Z,7.16
2017-12-08T05:34:23.780Z,7.18
2017-12-08T05:35:23.743Z,7.19
2017-12-08T05:37:17.108Z,7.15
2017-12-08T05:38:17.070Z,7.13
2017-12-08T05:40:10.430Z,7.16
2017-12-08T05:41:10.394Z,7.11
2017-12-08T05:43:03.764Z,7.13
2017-12-08T05:44:03.722Z,7.07
2017-12-08T05:45:57.076Z,7.15
2017-12-08T05:46:57.040Z,7.11
2017-12-08T05:48:50.403Z,7.13
2017-12-08T05:49:50.365Z,7.07
2017-12-08T05:51:43.712Z,7.16
2017-12-08T05:52:43.676Z,7.21
2017-12-08T05:54:37.062Z,7.22
2017-12-08T05:55:37.009Z,7.19
2017-12-08T05:57:32.882Z,7.24
2017-12-08T05:58:32.837Z,7.07
2017-12-08T06:00:26.231Z,7.24
2017-12-08T06:01:26.163Z,7.04
2017-12-08T06:03:19.530Z,7.11
2017-12-08T06:04:19.491Z,7.07
2017-12-08T06:06:12.858Z,6.97
2017-12-08T06:07:12.812Z,7.16
2017-12-08T06:09:06.184Z,6.96
2017-12-08T06:10:06.141Z,7.04
2017-12-08T06:12:00.397Z,7.03
2017-12-08T06:13:00.362Z,7.00
2017-12-08T06:14:53.722Z,7.06
2017-12-08T06:15:53.673Z,7.06
2017-12-08T06:17:49.533Z,7.04
2017-12-08T06:18:49.493Z,7.03
2017-12-08T06:20:45.367Z,7.00
2017-12-08T06:21:45.318Z,7.04
2017-12-08T06:23:38.677Z,7.00
2017-12-08T06:24:38.630Z,6.99
2017-12-08T06:26:34.512Z,7.06
2017-12-08T06:27:34.464Z,7.01
2017-12-08T06:29:27.833Z,7.04
2017-12-08T06:30:27.786Z,7.03
2017-12-08T06:32:24.540Z,7.04
2017-12-08T06:33:24.495Z,6.99
2017-12-08T06:35:17.862Z,6.99
2017-12-08T06:36:17.819Z,7.00
2017-12-08T06:38:11.175Z,7.00
2017-12-08T06:39:11.143Z,7.00
2017-12-08T06:41:04.514Z,7.00
2017-12-08T06:42:04.475Z,6.97
2017-12-08T06:43:57.836Z,7.03
2017-12-08T06:44:57.786Z,7.03
2017-12-08T06:46:51.176Z,7.01
2017-12-08T06:47:51.114Z,7.00
2017-12-08T06:49:46.991Z,6.99
2017-12-08T06:50:46.939Z,7.03
2017-12-08T06:52:42.812Z,7.03
2017-12-08T06:53:42.770Z,7.06
2017-12-08T06:55:36.133Z,7.04
2017-12-08T06:56:36.087Z,7.04
2017-12-08T06:58:29.586Z,7.03
2017-12-08T06:59:29.525Z,7.00
2017-12-08T07:01:25.451Z,7.03
2017-12-08T07:02:25.368Z,7.03
2017-12-08T07:04:21.239Z,7.00
2017-12-08T07:05:21.199Z,6.99
2017-12-08T07:07:14.557Z,7.06
2017-12-08T07:08:14.508Z,7.00
2017-12-08T07:10:10.380Z,7.06
2017-12-08T07:11:10.338Z,7.00
2017-12-08T07:13:06.204Z,7.00
2017-12-08T07:14:06.161Z,6.96
2017-12-08T07:15:59.544Z,7.00
2017-12-08T07:16:59.500Z,6.97
2017-12-08T07:18:52.858Z,7.00
2017-12-08T07:19:52.820Z,6.91
2017-12-08T07:21:48.690Z,6.96
2017-12-08T07:22:48.647Z,6.96
2017-12-08T07:24:44.518Z,6.99
2017-12-08T07:25:44.502Z,6.88
2017-12-08T07:27:37.844Z,6.88
2017-12-08T07:28:37.798Z,6.92
2017-12-08T07:30:31.183Z,6.86
2017-12-08T07:31:31.118Z,6.85
2017-12-08T07:33:27.006Z,6.85
2017-12-08T07:34:26.968Z,6.81
2017-12-08T07:36:20.373Z,6.81
2017-12-08T07:37:20.312Z,6.78
2017-12-08T07:39:13.670Z,6.79
2017-12-08T07:40:13.636Z,6.71
2017-12-08T07:42:07.003Z,6.73
2017-12-08T07:43:06.960Z,6.73
2017-12-08T07:45:00.317Z,6.73
2017-12-08T07:46:00.270Z,6.73
2017-12-08T07:47:56.151Z,6.78
2017-12-08T07:48:56.106Z,6.83
2017-12-08T07:50:49.503Z,6.91
2017-12-08T07:51:49.468Z,6.91
2017-12-08T07:53:42.797Z,6.93
2017-12-08T07:54:42.759Z,6.92
2017-12-08T07:56:36.120Z,6.86
2017-12-08T07:57:36.076Z,6.96
2017-12-08T07:59:29.442Z,6.97
2017-12-08T08:00:29.400Z,7.00
2017-12-08T08:02:25.411Z,6.99
2017-12-08T08:03:25.211Z,6.99
2017-12-08T08:05:21.082Z,7.00
2017-12-08T08:06:21.035Z,7.01
2017-12-08T08:08:16.905Z,7.03
2017-12-08T08:09:16.869Z,6.86
2017-12-08T08:11:23.512Z,7.00
2017-12-08T08:12:23.445Z,6.99
2017-12-08T08:14:16.804Z,6.91
2017-12-08T08:15:16.758Z,6.89
2017-12-08T08:17:10.176Z,6.93
2017-12-08T08:18:10.083Z,6.96
2017-12-08T08:20:03.457Z,6.99
2017-12-08T08:21:03.414Z,7.06
2017-12-08T08:22:56.773Z,6.99
2017-12-08T08:23:56.794Z,7.16
2017-12-08T08:25:50.096Z,7.13
2017-12-08T08:26:50.056Z,7.16
2017-12-08T08:28:43.412Z,7.26
2017-12-08T08:29:43.373Z,7.34
2017-12-08T08:31:36.722Z,7.39
2017-12-08T08:32:36.685Z,7.43
2017-12-08T08:34:30.074Z,7.58
2017-12-08T08:35:30.022Z,7.57
2017-12-08T08:37:24.200Z,7.62
2017-12-08T08:38:24.153Z,7.68
2017-12-08T08:40:17.524Z,7.74
2017-12-08T08:41:17.489Z,7.81
2017-12-08T08:43:10.849Z,7.86
2017-12-08T08:44:10.802Z,7.81
2017-12-08T08:46:04.183Z,7.94
2017-12-08T08:47:04.133Z,7.91
2017-12-08T08:49:00.033Z,7.99
2017-12-08T08:49:59.968Z,8.05
2017-12-08T08:51:55.843Z,8.05
2017-12-08T08:52:55.796Z,7.99
2017-12-08T08:54:49.215Z,8.01
2017-12-08T08:55:49.146Z,8.14
2017-12-08T08:57:45.002Z,8.14
2017-12-08T08:58:44.968Z,8.14
2017-12-08T09:00:38.332Z,8.19
2017-12-08T09:01:38.291Z,8.17
2017-12-08T09:03:31.648Z,8.24
2017-12-08T09:04:31.644Z,8.28
2017-12-08T09:06:24.997Z,8.34
2017-12-08T09:07:24.944Z,8.35
2017-12-08T09:09:20.814Z,8.41
2017-12-08T09:10:20.779Z,8.37
2017-12-08T09:12:14.150Z,8.42
2017-12-08T09:13:14.107Z,8.47
2017-12-08T09:15:07.491Z,8.46
2017-12-08T09:16:07.451Z,8.46
2017-12-08T09:18:03.340Z,8.56
2017-12-08T09:19:03.293Z,8.46
2017-12-08T09:20:56.656Z,8.49
2017-12-08T09:21:56.618Z,8.55
2017-12-08T09:23:50.005Z,8.55
2017-12-08T09:24:49.959Z,8.59
2017-12-08T09:26:43.314Z,8.59
2017-12-08T09:27:43.287Z,8.57
2017-12-08T09:29:36.682Z,8.59
2017-12-08T09:30:36.601Z,8.62
2017-12-08T09:32:40.744Z,8.67
2017-12-08T09:33:40.709Z,8.80
2017-12-08T09:35:34.025Z,8.71
2017-12-08T09:36:33.991Z,8.81
2017-12-08T09:38:27.357Z,8.89
2017-12-08T09:39:27.307Z,9.04
2017-12-08T09:41:20.703Z,8.95
2017-12-08T09:42:20.639Z,8.88
2017-12-08T09:44:16.500Z,8.80
2017-12-08T09:45:16.457Z,8.71
2017-12-08T09:47:12.329Z,8.55
2017-12-08T09:48:12.281Z,8.46
2017-12-08T09:50:05.647Z,8.20
2017-12-08T09:51:05.609Z,8.12
2017-12-08T09:52:58.984Z,7.87
2017-12-08T09:53:58.941Z,7.87
2017-12-08T09:55:52.294Z,7.66
2017-12-08T09:56:52.254Z,7.57
2017-12-08T09:58:48.108Z,7.39
2017-12-08T09:59:48.066Z,7.33
2017-12-08T10:01:41.427Z,7.15
2017-12-08T10:02:41.388Z,7.10
2017-12-08T10:04:37.261Z,7.08
2017-12-08T10:05:37.220Z,6.97
2017-12-08T10:07:30.581Z,6.99
2017-12-08T10:08:30.544Z,7.00
2017-12-08T10:10:23.908Z,6.93
2017-12-08T10:11:23.874Z,6.91
2017-12-08T10:13:17.233Z,6.86
2017-12-08T10:14:17.186Z,6.83
2017-12-08T10:16:10.563Z,6.85
2017-12-08T10:17:10.513Z,6.79
2017-12-08T10:19:03.871Z,6.85
2017-12-08T10:20:03.832Z,6.92
2017-12-08T10:21:58.023Z,7.01
2017-12-08T10:22:57.984Z,7.03
2017-12-08T10:24:53.857Z,7.19
2017-12-08T10:25:53.832Z,7.24
2017-12-08T10:27:47.180Z,7.37
2017-12-08T10:28:47.138Z,7.62
2017-12-08T10:30:40.497Z,7.77
2017-12-08T10:31:40.456Z,7.95
2017-12-08T10:33:33.821Z,8.04
2017-12-08T10:34:33.768Z,8.09
2017-12-08T10:36:27.135Z,8.24
2017-12-08T10:37:27.087Z,8.32
2017-12-08T10:39:20.496Z,8.50
2017-12-08T10:40:20.428Z,8.55
2017-12-08T10:42:13.784Z,8.59
2017-12-08T10:43:13.744Z,8.68
2017-12-08T10:45:07.980Z,8.78
2017-12-08T10:46:07.934Z,8.78
2017-12-08T10:48:01.288Z,8.86
2017-12-08T10:49:01.253Z,8.88
2017-12-08T10:50:54.605Z,8.81
2017-12-08T10:51:54.564Z,8.92
2017-12-08T10:53:47.921Z,8.90
2017-12-08T10:54:47.882Z,8.89
2017-12-08T10:56:43.770Z,8.99
2017-12-08T10:57:43.705Z,9.03
2017-12-08T10:59:37.069Z,9.08
2017-12-08T11:00:37.025Z,9.11
2017-12-08T11:02:30.383Z,9.11
2017-12-08T11:03:30.337Z,9.06
2017-12-08T11:05:26.206Z,9.23
2017-12-08T11:06:26.165Z,9.18
2017-12-08T11:08:19.538Z,9.18
2017-12-08T11:09:19.491Z,9.14
2017-12-08T11:11:12.892Z,9.19
2017-12-08T11:12:12.818Z,9.19
2017-12-08T11:14:06.194Z,9.15
2017-12-08T11:15:06.139Z,9.14
2017-12-08T11:16:59.519Z,9.15
2017-12-08T11:17:59.477Z,9.11
2017-12-08T11:19:52.842Z,9.01
2017-12-08T11:20:52.807Z,9.06
2017-12-08T11:22:46.172Z,9.01
2017-12-08T11:23:46.133Z,8.92
2017-12-08T11:25:39.508Z,9.06
2017-12-08T11:26:39.457Z,9.11
2017-12-08T11:28:33.660Z,9.15
2017-12-08T11:29:33.619Z,9.22
2017-12-08T11:31:27.018Z,9.24
2017-12-08T11:32:26.937Z,9.37
2017-12-08T11:34:20.370Z,9.30
2017-12-08T11:35:20.307Z,9.23
2017-12-08T11:37:16.150Z,9.36
2017-12-08T11:38:16.107Z,9.37
2017-12-08T11:40:11.981Z,9.33
2017-12-08T11:41:11.972Z,9.41
2017-12-08T11:43:06.095Z,9.36
2017-12-08T11:44:06.061Z,9.42
2017-12-08T11:47:01.877Z,9.42
2017-12-08T11:48:55.245Z,9.30
2017-12-08T11:49:55.204Z,9.34
2017-12-08T11:51:49.413Z,9.16
2017-12-08T11:52:49.358Z,9.26
2017-12-08T11:54:42.727Z,9.12
2017-12-08T11:55:42.686Z,9.08
2017-12-08T11:57:36.096Z,8.83
2017-12-08T11:58:36.012Z,8.70
2017-12-08T12:00:31.934Z,8.65
2017-12-08T12:01:31.895Z,8.47
2017-12-08T12:03:27.754Z,8.41
2017-12-08T12:04:27.707Z,8.31
2017-12-08T12:06:21.104Z,8.35
2017-12-08T12:07:21.066Z,8.31
2017-12-08T12:09:15.463Z,8.44
2017-12-08T12:10:15.419Z,8.56
2017-12-08T12:12:08.775Z,8.77
2017-12-08T12:13:08.745Z,8.83
2017-12-08T12:15:04.619Z,9.03
2017-12-08T12:16:04.572Z,9.06
2017-12-08T12:18:00.425Z,9.26
2017-12-08T12:19:00.391Z,9.30
2017-12-08T12:20:53.745Z,9.30
2017-12-08T12:21:53.709Z,9.27
2017-12-08T12:23:49.577Z,9.36
2017-12-08T12:24:49.536Z,9.36
2017-12-08T12:26:42.885Z,9.51
2017-12-08T12:27:42.844Z,9.42
2017-12-08T12:29:36.205Z,9.44
2017-12-08T12:30:36.166Z,9.40
2017-12-08T12:32:29.535Z,9.27
2017-12-08T12:33:29.485Z,9.24
2017-12-08T12:35:22.851Z,9.08
2017-12-08T12:36:22.814Z,8.89
2017-12-08T12:38:16.181Z,8.81
2017-12-08T12:39:16.138Z,8.67
2017-12-08T12:41:09.533Z,8.55
2017-12-08T12:42:09.522Z,8.53
2017-12-08T12:44:03.091Z,8.35
2017-12-08T12:45:03.086Z,8.28
2017-12-08T12:46:56.429Z,8.19
2017-12-08T12:47:56.382Z,8.20
2017-12-08T12:49:49.743Z,8.14
2017-12-08T12:50:49.702Z,8.16
2017-12-08T12:52:43.103Z,8.19
2017-12-08T12:53:43.026Z,8.28
2017-12-08T12:55:36.377Z,8.23
2017-12-08T12:56:36.338Z,8.24
2017-12-08T12:58:29.691Z,8.16
2017-12-08T12:59:29.648Z,8.17
2017-12-08T13:01:23.025Z,8.14
2017-12-08T13:02:22.976Z,8.20
2017-12-08T13:04:16.343Z,8.32
2017-12-08T13:05:16.304Z,8.31
2017-12-08T13:07:09.666Z,8.34
2017-12-08T13:08:09.626Z,8.37
2017-12-08T13:10:03.024Z,8.52
2017-12-08T13:11:02.961Z,8.50
2017-12-08T13:12:58.819Z,8.46
2017-12-08T13:13:58.781Z,8.57
2017-12-08T13:15:52.182Z,8.50
2017-12-08T13:16:52.147Z,8.50
2017-12-08T13:18:45.487Z,8.60
2017-12-08T13:19:45.424Z,8.59
2017-12-08T13:21:38.790Z,8.65
2017-12-08T13:22:38.743Z,8.44
2017-12-08T13:24:32.116Z,8.42
2017-12-08T13:25:32.073Z,8.34
2017-12-08T13:27:25.438Z,8.32
2017-12-08T13:28:25.403Z,8.34
2017-12-08T13:30:18.750Z,8.21
2017-12-08T13:31:18.713Z,8.19
2017-12-08T13:33:14.583Z,8.14
2017-12-08T13:34:14.553Z,8.09
2017-12-08T13:36:07.918Z,8.09
2017-12-08T13:37:07.881Z,8.12
2017-12-08T13:39:01.236Z,8.01
2017-12-08T13:40:01.197Z,7.91
2017-12-08T13:41:54.560Z,7.99
2017-12-08T13:42:54.517Z,7.98
2017-12-08T13:44:50.376Z,7.73
2017-12-08T13:45:50.335Z,7.73
2017-12-08T13:47:43.704Z,7.66
2017-12-08T13:48:43.679Z,7.50
2017-12-08T13:50:37.032Z,7.49
2017-12-08T13:51:36.981Z,7.50
2017-12-08T13:53:30.365Z,7.43
2017-12-08T13:54:30.297Z,7.42
2017-12-08T13:56:23.650Z,7.44
2017-12-08T13:57:23.612Z,7.44
2017-12-08T13:59:16.974Z,7.39
2017-12-08T14:00:16.936Z,7.40
2017-12-08T14:02:10.294Z,7.54
2017-12-08T14:03:10.276Z,7.46
2017-12-08T14:05:03.624Z,7.36
2017-12-08T14:06:03.579Z,7.39
2017-12-08T14:07:56.968Z,7.40
2017-12-08T14:08:56.898Z,7.40
2017-12-08T14:10:50.292Z,7.39
2017-12-08T14:11:50.213Z,7.39
2017-12-08T14:13:46.108Z,7.29
2017-12-08T14:14:46.084Z,7.26
2017-12-08T14:16:39.421Z,7.25
2017-12-08T14:17:39.384Z,7.22
2017-12-08T14:19:32.803Z,7.16
2017-12-08T14:20:32.742Z,7.15
2017-12-08T14:22:28.613Z,7.16
2017-12-08T14:23:28.566Z,7.13
2017-12-08T14:25:21.925Z,7.11
2017-12-08T14:26:21.880Z,7.08
2017-12-08T14:28:15.251Z,7.10
2017-12-08T14:29:15.229Z,7.11
2017-12-08T14:31:08.582Z,7.08
2017-12-08T14:32:08.533Z,7.16
2017-12-08T14:34:01.921Z,7.15
2017-12-08T14:35:01.894Z,7.21
2017-12-08T14:36:55.253Z,7.06
2017-12-08T14:37:55.206Z,7.21
2017-12-08T14:39:48.587Z,6.99
2017-12-08T14:40:48.554Z,7.08
2017-12-08T14:42:42.767Z,7.10
2017-12-08T14:43:42.724Z,7.06
2017-12-08T14:45:38.603Z,7.01
2017-12-08T14:46:38.559Z,7.06
2017-12-08T14:48:31.919Z,6.99
2017-12-08T14:49:31.882Z,7.01
2017-12-08T14:51:25.238Z,6.99
2017-12-08T14:52:25.199Z,7.03
2017-12-08T14:54:18.570Z,6.96
2017-12-08T14:55:18.528Z,6.93
2017-12-08T14:57:11.898Z,6.89
2017-12-08T14:58:11.854Z,6.97
2017-12-08T15:00:07.723Z,6.85
2017-12-08T15:01:07.683Z,6.92
2017-12-08T15:03:01.056Z,6.99
2017-12-08T15:04:01.017Z,6.93
2017-12-08T15:05:57.713Z,6.92
2017-12-08T15:06:57.676Z,6.85
2017-12-08T15:08:51.026Z,6.92
2017-12-08T15:09:50.985Z,6.96
2017-12-08T15:11:45.247Z,6.93
2017-12-08T15:12:45.187Z,6.86
2017-12-08T15:14:38.546Z,6.83
2017-12-08T15:15:38.506Z,6.86
2017-12-08T15:17:34.415Z,6.78
2017-12-08T15:18:34.332Z,6.70
2017-12-08T15:20:27.729Z,6.78
2017-12-08T15:21:27.688Z,6.73
2017-12-08T15:23:23.630Z,6.70
2017-12-08T15:24:23.580Z,6.64
2017-12-08T15:26:19.448Z,6.68
2017-12-08T15:27:19.429Z,6.55
2017-12-08T15:29:12.787Z,6.56
2017-12-08T15:30:12.753Z,6.56
2017-12-08T15:32:06.100Z,6.56
2017-12-08T15:33:06.058Z,6.60
2017-12-08T15:35:01.929Z,6.53
2017-12-08T15:36:01.889Z,6.60
2017-12-08T15:37:57.919Z,6.57
2017-12-08T15:38:57.715Z,6.57
2017-12-08T15:40:51.085Z,6.64
2017-12-08T15:41:51.043Z,6.57
2017-12-08T15:43:44.405Z,6.61
2017-12-08T15:44:44.360Z,6.65
2017-12-08T15:46:40.235Z,6.71
2017-12-08T15:47:40.183Z,6.61
2017-12-08T15:49:36.053Z,6.61
2017-12-08T15:50:36.025Z,6.60
2017-12-08T15:52:29.387Z,6.57
2017-12-08T15:53:29.347Z,6.56
2017-12-08T15:55:22.819Z,6.56
2017-12-08T15:56:22.698Z,6.49
2017-12-08T15:58:18.579Z,6.50
2017-12-08T15:59:18.541Z,6.46
2017-12-08T16:01:11.912Z,6.42
2017-12-08T16:02:11.879Z,6.52
2017-12-08T16:04:06.031Z,6.42
2017-12-08T16:05:05.990Z,6.46
2017-12-08T16:07:12.602Z,6.45
2017-12-08T16:08:12.561Z,6.45
2017-12-08T16:10:05.966Z,6.32
2017-12-08T16:11:05.927Z,6.43
2017-12-08T16:12:59.279Z,6.35
2017-12-08T16:13:59.236Z,6.43
2017-12-08T16:15:52.603Z,6.46
2017-12-08T16:16:52.561Z,6.49
2017-12-08T16:18:45.944Z,6.43
2017-12-08T16:19:45.895Z,6.46
2017-12-08T16:21:39.288Z,6.52
2017-12-08T16:22:39.241Z,6.53
2017-12-08T16:24:36.144Z,6.56
2017-12-08T16:25:35.943Z,6.60
2017-12-08T16:27:31.823Z,6.53
2017-12-08T16:28:31.772Z,6.53
2017-12-08T16:30:27.649Z,6.50
2017-12-08T16:31:27.598Z,6.47
2017-12-08T16:33:23.475Z,6.43
2017-12-08T16:34:23.440Z,6.32
2017-12-08T16:36:16.819Z,6.31
2017-12-08T16:37:16.776Z,6.45
2017-12-08T16:39:10.133Z,6.37
2017-12-08T16:40:10.092Z,6.40
2017-12-08T16:42:03.638Z,6.43
2017-12-08T16:43:03.516Z,6.35
2017-12-08T16:44:56.874Z,6.37
2017-12-08T16:45:56.828Z,6.38
2017-12-08T16:47:52.726Z,6.25
2017-12-08T16:48:52.659Z,6.24
2017-12-08T16:50:48.524Z,6.19
2017-12-08T16:51:48.489Z,6.27
2017-12-08T16:53:41.858Z,6.30
2017-12-08T16:54:41.813Z,6.24
2017-12-08T16:56:35.188Z,6.21
2017-12-08T16:57:35.137Z,6.12
2017-12-08T16:59:31.003Z,6.05
2017-12-08T17:00:30.963Z,6.05
2017-12-08T17:02:24.344Z,6.16
2017-12-08T17:03:24.295Z,6.12
2017-12-08T17:05:17.670Z,6.15
2017-12-08T17:06:17.639Z,6.12
2017-12-08T17:08:10.994Z,6.08
2017-12-08T17:09:10.955Z,6.13
2017-12-08T17:11:06.822Z,6.12
2017-12-08T17:12:06.827Z,6.02
2017-12-08T17:14:00.149Z,5.93
2017-12-08T17:15:00.100Z,5.91
2017-12-08T17:16:53.498Z,5.80
2017-12-08T17:17:53.467Z,5.88
2017-12-08T17:19:46.819Z,5.73
2017-12-08T17:20:46.778Z,5.69
2017-12-08T17:22:40.141Z,5.65
2017-12-08T17:23:40.090Z,5.66
2017-12-08T17:25:35.977Z,5.62
2017-12-08T17:26:35.934Z,5.57
2017-12-08T17:28:31.835Z,5.47
2017-12-08T17:29:31.791Z,5.48
2017-12-08T17:31:25.193Z,5.47
2017-12-08T17:32:25.156Z,5.48
2017-12-08T17:34:18.629Z,5.44
2017-12-08T17:35:18.519Z,5.41
2017-12-08T17:37:11.919Z,5.41
2017-12-08T17:38:11.862Z,5.34
2017-12-08T17:40:07.754Z,5.44
2017-12-08T17:41:07.706Z,5.33
2017-12-08T17:43:01.108Z,5.33
2017-12-08T17:44:01.061Z,5.33
2017-12-08T17:45:54.417Z,5.33
2017-12-08T17:46:54.391Z,5.27
2017-12-08T17:48:47.807Z,5.34
2017-12-08T17:49:47.753Z,5.34
2017-12-08T17:51:43.580Z,5.50
2017-12-08T17:52:43.533Z,5.47
2017-12-08T17:54:39.417Z,5.47
2017-12-08T17:55:39.365Z,5.41
2017-12-08T17:57:35.232Z,5.50
2017-12-08T17:58:35.188Z,5.39
2017-12-08T18:00:31.061Z,5.39
2017-12-08T18:01:31.012Z,5.40
2017-12-08T18:03:26.877Z,5.41
2017-12-08T18:04:26.850Z,5.41
2017-12-08T18:06:22.710Z,5.40
2017-12-08T18:07:22.664Z,5.34
2017-12-08T18:09:18.532Z,5.27
2017-12-08T18:10:18.489Z,5.27
2017-12-08T18:12:14.362Z,5.37
2017-12-08T18:13:14.329Z,5.33
2017-12-08T18:15:10.204Z,5.32
2017-12-08T18:16:10.145Z,5.33
2017-12-08T18:18:06.016Z,5.32
2017-12-08T18:19:05.974Z,5.30
2017-12-08T18:20:59.339Z,5.30
2017-12-08T18:21:59.300Z,5.34
2017-12-08T18:23:55.151Z,5.34
2017-12-08T18:24:55.128Z,5.34
2017-12-08T18:26:51.011Z,5.32
2017-12-08T18:27:50.925Z,5.33
2017-12-08T18:29:46.830Z,5.34
2017-12-08T18:30:46.763Z,5.36
2017-12-08T18:32:40.127Z,5.29
2017-12-08T18:33:40.071Z,5.29
2017-12-08T18:35:33.440Z,5.24
2017-12-08T18:36:33.401Z,5.21
2017-12-08T18:38:26.290Z,5.32
2017-12-08T18:39:26.249Z,5.25
2017-12-08T18:41:22.102Z,5.29
2017-12-08T18:42:22.063Z,5.24
2017-12-08T18:44:15.474Z,5.21
2017-12-08T18:45:15.437Z,5.32
2017-12-08T18:47:08.795Z,5.25
2017-12-08T18:48:08.752Z,5.22
2017-12-08T18:50:02.135Z,5.18
2017-12-08T18:51:02.087Z,5.19
2017-12-08T18:52:56.314Z,5.25
2017-12-08T18:53:56.266Z,5.21
2017-12-08T18:55:52.139Z,5.19
2017-12-08T18:56:52.090Z,5.16
2017-12-08T18:58:45.477Z,5.19
2017-12-08T18:59:45.434Z,5.24
2017-12-08T19:01:38.807Z,5.16
2017-12-08T19:02:38.764Z,5.24
2017-12-08T19:04:35.445Z,5.18
2017-12-08T19:05:35.402Z,5.12
2017-12-08T19:07:29.647Z,5.24
2017-12-08T19:08:29.598Z,5.24
2017-12-08T19:10:25.651Z,5.27
2017-12-08T19:11:25.423Z,5.25
2017-12-08T19:13:18.933Z,5.21
2017-12-08T19:14:18.779Z,5.12
2017-12-08T19:16:12.142Z,5.12
2017-12-08T19:17:12.091Z,5.12
2017-12-08T19:19:08.011Z,5.19
2017-12-08T19:20:07.967Z,5.14